createdAt,value
2017-07-22T00:02:13.453Z,14.50
2017-07-22T00:04:40.818Z,14.37
2017-07-22T00:07:08.137Z,13.90
2017-07-22T00:09:35.493Z,14.27
2017-07-22T00:12:02.818Z,14.03
2017-07-22T00:14:30.163Z,15.03
2017-07-22T00:16:57.505Z,15.07
2017-07-22T00:19:24.849Z,14.83
2017-07-22T00:21:52.216Z,13.30
2017-07-22T00:24:19.520Z,13.57
2017-07-22T00:26:46.879Z,14.30
2017-07-22T00:29:14.202Z,14.03
2017-07-22T00:31:41.574Z,14.20
2017-07-22T00:34:08.886Z,14.20
2017-07-22T00:36:36.246Z,15.30
2017-07-22T00:39:03.574Z,14.37
2017-07-22T00:41:30.910Z,14.70
2017-07-22T00:43:58.275Z,13.00
2017-07-22T00:46:25.630Z,13.60
2017-07-22T00:48:52.939Z,12.97
2017-07-22T00:51:20.273Z,14.53
2017-07-22T00:53:47.629Z,12.80
2017-07-22T00:56:14.961Z,13.37
2017-07-22T00:58:42.327Z,14.07
2017-07-22T01:01:09.636Z,13.27
2017-07-22T01:03:36.988Z,13.50
2017-07-22T01:06:04.290Z,13.47
2017-07-22T01:08:31.608Z,14.30
2017-07-22T01:10:59.207Z,13.90
2017-07-22T01:13:26.534Z,14.77
2017-07-22T01:15:53.839Z,13.90
2017-07-22T01:18:21.164Z,14.37
2017-07-22T01:20:48.485Z,14.20
2017-07-22T01:23:15.836Z,14.27
2017-07-22T01:25:43.163Z,14.93
2017-07-22T01:28:10.505Z,14.67
2017-07-22T01:30:37.838Z,13.80
2017-07-22T01:33:05.154Z,14.47
2017-07-22T01:35:32.477Z,14.77
2017-07-22T01:37:59.789Z,14.53
2017-07-22T01:40:27.133Z,14.17
2017-07-22T01:42:54.444Z,14.50
2017-07-22T01:45:21.829Z,14.50
2017-07-22T01:47:49.158Z,14.13
2017-07-22T01:50:16.493Z,14.40
2017-07-22T01:52:45.352Z,13.80
2017-07-22T01:55:12.710Z,15.10
2017-07-22T01:57:40.029Z,15.47
2017-07-22T02:00:07.362Z,14.33
2017-07-22T02:02:34.696Z,14.17
2017-07-22T02:05:02.024Z,14.00
2017-07-22T02:07:29.354Z,13.87
2017-07-22T02:09:56.685Z,14.23
2017-07-22T02:12:24.038Z,14.80
2017-07-22T02:14:51.350Z,15.03
2017-07-22T02:17:18.673Z,14.17
2017-07-22T02:19:45.984Z,13.83
2017-07-22T02:22:13.345Z,14.23
2017-07-22T02:24:40.669Z,15.03
2017-07-22T02:27:07.988Z,15.10
2017-07-22T02:29:35.298Z,14.87
2017-07-22T02:32:02.627Z,15.27
2017-07-22T02:34:29.958Z,14.63
2017-07-22T02:36:57.307Z,14.40
2017-07-22T02:39:24.636Z,15.27
2017-07-22T02:41:51.972Z,14.93
2017-07-22T02:44:19.299Z,14.90
2017-07-22T02:46:46.645Z,14.90
2017-07-22T02:49:14.009Z,14.43
2017-07-22T02:51:41.347Z,15.00
2017-07-22T02:54:08.678Z,14.77
2017-07-22T02:56:35.997Z,15.10
2017-07-22T02:59:03.333Z,15.47
2017-07-22T03:01:30.635Z,14.43
2017-07-22T03:03:57.964Z,15.07
2017-07-22T03:06:25.277Z,14.77
2017-07-22T03:08:52.634Z,14.37
2017-07-22T03:11:19.954Z,14.93
2017-07-22T03:13:47.296Z,14.60
2017-07-22T03:16:14.665Z,14.20
2017-07-22T03:18:41.968Z,14.40
2017-07-22T03:21:09.454Z,13.70
2017-07-22T03:23:36.752Z,15.13
2017-07-22T03:26:04.117Z,14.97
2017-07-22T03:28:31.454Z,13.93
2017-07-22T03:30:58.815Z,13.17
2017-07-22T03:33:26.138Z,14.23
2017-07-22T03:35:53.502Z,13.13
2017-07-22T03:38:20.813Z,14.67
2017-07-22T03:40:48.164Z,13.67
2017-07-22T03:43:15.493Z,14.53
2017-07-22T03:45:42.854Z,14.13
2017-07-22T03:48:10.178Z,14.93
2017-07-22T03:50:37.526Z,15.40
2017-07-22T03:53:04.878Z,13.03
2017-07-22T03:55:32.250Z,13.87
2017-07-22T03:57:59.571Z,13.80
2017-07-22T04:00:26.890Z,13.43
2017-07-22T04:02:54.236Z,13.43
2017-07-22T04:05:21.577Z,13.63
2017-07-22T04:07:48.928Z,13.87
2017-07-22T04:10:16.239Z,12.67
2017-07-22T04:12:43.603Z,11.93
2017-07-22T04:15:10.914Z,13.80
2017-07-22T04:17:38.294Z,13.33
2017-07-22T04:20:05.612Z,12.30
2017-07-22T04:22:33.286Z,12.80
2017-07-22T04:25:00.618Z,13.50
2017-07-22T04:27:27.971Z,13.17
2017-07-22T04:29:55.300Z,12.53
2017-07-22T04:32:22.638Z,11.77
2017-07-22T04:34:49.989Z,11.40
2017-07-22T04:37:17.312Z,12.37
2017-07-22T04:39:44.670Z,12.93
2017-07-22T04:42:12.006Z,12.43
2017-07-22T04:44:39.561Z,12.37
2017-07-22T04:47:06.864Z,12.27
2017-07-22T04:49:34.180Z,12.37
2017-07-22T04:52:01.488Z,11.90
2017-07-22T04:54:28.804Z,12.40
2017-07-22T04:56:56.132Z,11.73
2017-07-22T04:59:23.495Z,12.03
2017-07-22T05:01:50.821Z,12.17
2017-07-22T05:04:18.198Z,11.00
2017-07-22T05:06:45.539Z,11.23
2017-07-22T05:09:12.837Z,10.97
2017-07-22T05:11:40.156Z,11.73
2017-07-22T05:14:07.726Z,11.00
2017-07-22T05:16:35.051Z,11.57
2017-07-22T05:19:02.348Z,10.87
2017-07-22T05:21:29.681Z,11.47
2017-07-22T05:23:56.989Z,11.27
2017-07-22T05:26:24.313Z,9.97
2017-07-22T05:28:51.686Z,10.87
2017-07-22T05:31:19.038Z,10.73
2017-07-22T05:33:46.358Z,10.07
2017-07-22T05:36:13.676Z,10.63
2017-07-22T05:38:40.992Z,10.10
2017-07-22T05:41:08.313Z,11.50
2017-07-22T05:43:35.641Z,10.90
2017-07-22T05:46:02.973Z,10.63
2017-07-22T05:48:30.319Z,10.13
2017-07-22T05:50:57.632Z,9.73
2017-07-22T05:53:24.963Z,10.47
2017-07-22T05:55:52.265Z,10.33
2017-07-22T05:58:19.598Z,10.20
2017-07-22T06:00:46.900Z,10.20
2017-07-22T06:03:14.226Z,9.90
2017-07-22T06:05:41.529Z,10.17
2017-07-22T06:08:08.848Z,9.67
2017-07-22T06:10:36.164Z,9.60
2017-07-22T06:13:03.506Z,9.27
2017-07-22T06:15:30.809Z,9.93
2017-07-22T06:17:58.116Z,9.97
2017-07-22T06:20:25.459Z,10.90
2017-07-22T06:22:53.268Z,9.40
2017-07-22T06:25:20.597Z,9.70
2017-07-22T06:27:47.903Z,9.70
2017-07-22T06:30:15.209Z,9.33
2017-07-22T06:32:42.590Z,10.07
2017-07-22T06:35:09.909Z,8.87
2017-07-22T06:37:37.275Z,9.37
2017-07-22T06:40:04.585Z,9.17
2017-07-22T06:42:31.909Z,8.93
2017-07-22T06:44:59.248Z,9.27
2017-07-22T06:47:26.542Z,8.57
2017-07-22T06:49:53.882Z,9.10
2017-07-22T06:52:21.205Z,9.10
2017-07-22T06:54:48.521Z,9.47
2017-07-22T06:57:15.829Z,8.87
2017-07-22T06:59:43.154Z,9.17
2017-07-22T07:02:10.455Z,9.20
2017-07-22T07:04:37.768Z,8.97
2017-07-22T07:07:05.091Z,9.70
2017-07-22T07:09:32.392Z,9.30
2017-07-22T07:11:59.720Z,9.30
2017-07-22T07:14:27.179Z,9.73
2017-07-22T07:16:54.574Z,9.17
2017-07-22T07:19:22.020Z,9.40
2017-07-22T07:21:49.351Z,9.53
2017-07-22T07:24:16.650Z,9.43
2017-07-22T07:26:45.924Z,9.90
2017-07-22T07:29:13.251Z,9.90
2017-07-22T07:31:40.593Z,9.90
2017-07-22T07:34:07.957Z,9.87
2017-07-22T07:36:35.280Z,9.27
2017-07-22T07:39:02.653Z,9.00
2017-07-22T07:41:29.961Z,9.60
2017-07-22T07:43:57.309Z,10.67
2017-07-22T07:46:24.617Z,9.80
2017-07-22T07:48:52.416Z,10.50
2017-07-22T07:51:19.708Z,10.37
2017-07-22T07:53:47.067Z,10.87
2017-07-22T07:56:14.368Z,10.40
2017-07-22T07:58:41.694Z,10.53
2017-07-22T08:01:08.992Z,10.53
2017-07-22T08:03:36.337Z,10.60
2017-07-22T08:06:03.637Z,10.30
2017-07-22T08:08:31.109Z,11.73
2017-07-22T08:10:58.478Z,11.00
2017-07-22T08:13:25.785Z,11.10
2017-07-22T08:15:53.149Z,10.83
2017-07-22T08:18:20.478Z,10.00
2017-07-22T08:20:47.837Z,11.23
2017-07-22T08:23:15.140Z,11.33
2017-07-22T08:25:42.470Z,11.43
2017-07-22T08:28:09.849Z,10.93
2017-07-22T08:30:37.193Z,10.70
2017-07-22T08:33:04.521Z,10.10
2017-07-22T08:35:31.894Z,9.97
2017-07-22T08:37:59.208Z,10.30
2017-07-22T08:40:26.545Z,9.40
2017-07-22T08:42:53.908Z,10.47
2017-07-22T08:45:21.216Z,9.80
2017-07-22T08:47:48.542Z,10.00
2017-07-22T08:50:15.836Z,9.80
2017-07-22T08:52:43.173Z,9.40
2017-07-22T08:55:10.480Z,9.40
2017-07-22T08:57:37.809Z,9.70
2017-07-22T09:00:05.182Z,9.97
2017-07-22T09:02:32.538Z,9.57
2017-07-22T09:04:59.836Z,9.30
2017-07-22T09:07:27.162Z,9.47
2017-07-22T09:09:54.464Z,9.50
2017-07-22T09:12:21.794Z,9.93
2017-07-22T09:14:49.118Z,9.80
2017-07-22T09:17:16.421Z,9.50
2017-07-22T09:19:43.728Z,10.10
2017-07-22T09:22:11.056Z,9.90
2017-07-22T09:24:38.380Z,10.07
2017-07-22T09:27:05.705Z,9.20
2017-07-22T09:29:33.087Z,9.23
2017-07-22T09:32:00.419Z,9.73
2017-07-22T09:34:27.770Z,10.00
2017-07-22T09:36:55.082Z,9.73
2017-07-22T09:39:22.400Z,9.50
2017-07-22T09:41:49.706Z,9.57
2017-07-22T09:44:17.029Z,9.80
2017-07-22T09:46:44.343Z,9.00
2017-07-22T09:49:12.001Z,9.80
2017-07-22T09:51:39.600Z,10.07
2017-07-22T09:54:06.938Z,9.40
2017-07-22T09:56:34.261Z,9.10
2017-07-22T09:59:01.571Z,8.50
2017-07-22T10:01:28.897Z,9.43
2017-07-22T10:03:56.202Z,9.37
2017-07-22T10:06:23.530Z,9.10
2017-07-22T10:08:50.825Z,9.00
2017-07-22T10:11:18.158Z,9.23
2017-07-22T10:13:45.439Z,8.30
2017-07-22T10:16:12.774Z,9.23
2017-07-22T10:18:40.107Z,8.70
2017-07-22T10:21:07.461Z,9.03
2017-07-22T10:23:34.782Z,8.57
2017-07-22T10:26:02.123Z,9.20
2017-07-22T10:28:29.758Z,8.33
2017-07-22T10:30:57.057Z,8.63
2017-07-22T10:33:24.394Z,8.80
2017-07-22T10:35:51.672Z,8.40
2017-07-22T10:38:18.984Z,9.00
2017-07-22T10:40:46.290Z,8.80
2017-07-22T10:43:13.630Z,8.60
2017-07-22T10:45:40.970Z,8.80
2017-07-22T10:48:08.317Z,8.13
2017-07-22T10:50:35.616Z,8.97
2017-07-22T10:53:02.966Z,8.80
2017-07-22T10:55:30.251Z,8.50
2017-07-22T10:57:57.667Z,9.40
2017-07-22T11:00:25.010Z,8.97
2017-07-22T11:02:52.345Z,8.43
2017-07-22T11:05:19.638Z,8.60
2017-07-22T11:07:47.017Z,8.30
2017-07-22T11:10:14.378Z,8.40
2017-07-22T11:12:41.693Z,8.10
2017-07-22T11:15:09.015Z,8.93
2017-07-22T11:17:36.305Z,8.90
2017-07-22T11:20:03.637Z,8.23
2017-07-22T11:22:30.960Z,9.47
2017-07-22T11:24:58.282Z,8.67
2017-07-22T11:27:25.590Z,8.47
2017-07-22T11:29:52.897Z,8.47
2017-07-22T11:32:20.588Z,8.33
2017-07-22T11:34:47.898Z,8.83
2017-07-22T11:37:15.474Z,9.00
2017-07-22T11:39:42.790Z,8.00
2017-07-22T11:42:10.088Z,8.23
2017-07-22T11:44:37.404Z,7.57
2017-07-22T11:47:05.145Z,8.33
2017-07-22T11:49:32.438Z,8.83
2017-07-22T11:51:59.795Z,8.10
2017-07-22T11:54:27.108Z,8.37
2017-07-22T11:56:54.436Z,8.23
2017-07-22T11:59:21.747Z,8.20
2017-07-22T12:01:49.091Z,8.50
2017-07-22T12:04:16.394Z,8.20
2017-07-22T12:06:43.761Z,8.50
2017-07-22T12:09:11.047Z,8.90
2017-07-22T12:11:38.382Z,8.53
2017-07-22T12:14:05.714Z,8.80
2017-07-22T12:16:33.009Z,8.30
2017-07-22T12:19:00.435Z,8.60
2017-07-22T12:21:27.780Z,9.50
2017-07-22T12:23:55.139Z,9.30
2017-07-22T12:26:22.458Z,9.33
2017-07-22T12:28:49.814Z,8.33
2017-07-22T12:31:17.144Z,9.77
2017-07-22T12:33:44.890Z,9.37
2017-07-22T12:36:12.216Z,9.80
2017-07-22T12:38:39.530Z,8.77
2017-07-22T12:41:06.867Z,9.80
2017-07-22T12:43:34.205Z,9.40
2017-07-22T12:46:01.542Z,10.50
2017-07-22T12:48:28.864Z,10.43
2017-07-22T12:50:56.168Z,10.27
2017-07-22T12:53:23.490Z,10.70
2017-07-22T12:55:50.804Z,10.40
2017-07-22T12:58:18.108Z,11.00
2017-07-22T13:00:45.458Z,10.07
2017-07-22T13:03:12.785Z,10.53
2017-07-22T13:05:40.249Z,10.43
2017-07-22T13:08:07.569Z,10.50
2017-07-22T13:10:34.971Z,10.60
2017-07-22T13:13:02.277Z,11.30
2017-07-22T13:15:29.618Z,11.60
2017-07-22T13:17:56.933Z,12.60
2017-07-22T13:20:24.286Z,10.20
2017-07-22T13:22:51.804Z,11.30
2017-07-22T13:25:19.495Z,11.57
2017-07-22T13:27:46.811Z,12.30
2017-07-22T13:30:14.185Z,16.07
2017-07-22T13:32:41.960Z,16.17
2017-07-22T13:35:09.268Z,15.50
2017-07-22T13:37:36.606Z,21.47
2017-07-22T13:40:03.940Z,0.50
2017-07-22T13:42:31.287Z,0.40
2017-07-22T13:44:58.571Z,1.43
2017-07-22T13:47:25.887Z,0.60
2017-07-22T13:49:53.185Z,0.40
2017-07-22T13:52:20.532Z,0.40
2017-07-22T13:54:47.826Z,0.53
2017-07-22T13:57:15.134Z,0.50
2017-07-22T13:59:42.459Z,0.40
2017-07-22T14:02:09.785Z,0.50
2017-07-22T14:04:41.407Z,0.40
2017-07-22T14:07:08.710Z,0.40
2017-07-22T14:09:36.012Z,0.40
2017-07-22T14:12:03.353Z,0.40
2017-07-22T14:14:30.673Z,0.50
2017-07-22T14:16:57.963Z,0.40
2017-07-22T14:19:25.296Z,0.57
2017-07-22T14:21:52.613Z,0.57
2017-07-22T14:24:19.966Z,0.40
2017-07-22T14:26:47.294Z,0.50
2017-07-22T14:29:14.584Z,0.40
2017-07-22T14:31:41.876Z,0.50
2017-07-22T14:34:09.217Z,0.40
2017-07-22T14:36:36.654Z,0.40
2017-07-22T14:39:04.002Z,0.40
2017-07-22T14:41:31.342Z,0.40
2017-07-22T14:43:58.635Z,0.60
2017-07-22T14:46:25.950Z,0.40
2017-07-22T14:48:53.265Z,0.80
2017-07-22T14:51:20.612Z,0.40
2017-07-22T14:53:47.937Z,0.40
2017-07-22T14:56:15.263Z,0.40
2017-07-22T14:58:42.550Z,0.53
2017-07-22T15:01:09.868Z,0.40
2017-07-22T15:03:37.161Z,0.40
2017-07-22T15:06:04.470Z,0.40
2017-07-22T15:08:31.785Z,0.40
2017-07-22T15:10:59.103Z,0.40
2017-07-22T15:13:26.400Z,0.67
2017-07-22T15:15:53.717Z,0.50
2017-07-22T15:18:21.066Z,0.40
2017-07-22T15:20:48.677Z,0.40
2017-07-22T15:23:15.998Z,0.40
2017-07-22T15:25:43.299Z,0.97
2017-07-22T15:28:10.629Z,0.40
2017-07-22T15:30:37.961Z,0.40
2017-07-22T15:33:05.277Z,0.40
2017-07-22T15:35:32.579Z,0.40
2017-07-22T15:37:59.899Z,0.70
2017-07-22T15:40:27.216Z,0.50
2017-07-22T15:42:54.525Z,0.40
2017-07-22T15:45:21.822Z,0.40
2017-07-22T15:47:49.144Z,0.40
2017-07-22T15:50:16.460Z,0.40
2017-07-22T15:52:43.762Z,0.60
2017-07-22T15:55:11.064Z,0.40
2017-07-22T15:57:38.398Z,0.40
2017-07-22T16:00:05.773Z,0.40
2017-07-22T16:02:33.092Z,0.40
2017-07-22T16:05:00.460Z,0.37
2017-07-22T16:07:27.794Z,0.40
2017-07-22T16:09:55.125Z,0.40
2017-07-22T16:12:22.457Z,0.40
2017-07-22T16:14:49.791Z,0.40
2017-07-22T16:22:49.785Z,0.40
2017-07-22T16:25:17.113Z,0.40
2017-07-22T16:27:44.428Z,0.40
2017-07-22T16:30:12.035Z,0.40
2017-07-22T16:32:40.697Z,0.40
2017-07-22T16:35:08.020Z,0.40
2017-07-22T16:37:35.333Z,0.40
2017-07-22T16:40:02.669Z,0.40
2017-07-22T16:42:29.993Z,0.60
2017-07-22T16:44:57.296Z,0.40
2017-07-22T16:47:24.622Z,0.40
2017-07-22T16:49:51.938Z,0.40
2017-07-22T16:52:19.327Z,0.40
2017-07-22T16:54:46.642Z,1.43
2017-07-22T16:57:13.978Z,0.40
2017-07-22T16:59:41.326Z,0.87
2017-07-22T17:02:08.668Z,0.50
2017-07-22T17:04:35.998Z,0.43
2017-07-22T17:07:03.358Z,0.40
2017-07-22T17:09:30.668Z,0.57
2017-07-22T17:11:58.040Z,0.77
2017-07-22T17:14:25.370Z,0.50
2017-07-22T17:16:52.730Z,0.50
2017-07-22T17:19:20.072Z,0.80
2017-07-22T17:21:47.386Z,0.60
2017-07-22T17:24:14.715Z,0.50
2017-07-22T17:26:42.049Z,0.60
2017-07-22T17:29:09.365Z,0.87
2017-07-22T17:31:37.644Z,0.80
2017-07-22T17:34:05.004Z,0.80
2017-07-22T17:36:32.340Z,0.60
2017-07-22T17:38:59.697Z,0.70
2017-07-22T17:41:27.048Z,0.70
2017-07-22T17:43:54.373Z,0.70
2017-07-22T17:46:21.688Z,0.70
2017-07-22T17:48:49.069Z,0.60
2017-07-22T17:51:17.151Z,0.60
2017-07-22T17:53:44.443Z,0.60
2017-07-22T17:56:11.811Z,0.60
2017-07-22T17:58:39.116Z,0.70
2017-07-22T18:01:06.450Z,0.60
2017-07-22T18:03:33.810Z,0.60
2017-07-22T18:06:01.143Z,0.60
2017-07-22T18:08:28.449Z,0.60
2017-07-22T18:10:56.177Z,0.63
2017-07-22T18:13:23.777Z,0.60
2017-07-22T18:15:51.107Z,0.70
2017-07-22T18:18:18.414Z,0.70
2017-07-22T18:20:45.746Z,0.60
2017-07-22T18:23:13.068Z,0.70
2017-07-22T18:25:40.404Z,0.60
2017-07-22T18:28:07.746Z,0.70
2017-07-22T18:30:35.085Z,1.73
2017-07-22T18:33:03.239Z,0.60
2017-07-22T18:35:30.588Z,0.60
2017-07-22T18:37:57.916Z,0.50
2017-07-22T18:40:25.257Z,0.50
2017-07-22T18:42:53.190Z,0.60
2017-07-22T18:45:20.498Z,0.60
2017-07-22T18:47:47.862Z,0.80
2017-07-22T18:50:15.165Z,0.60
2017-07-22T18:52:42.517Z,0.67
2017-07-22T18:55:10.133Z,0.70
2017-07-22T18:57:37.487Z,0.60
2017-07-22T19:00:04.808Z,0.60
2017-07-22T19:02:32.150Z,0.70
2017-07-22T19:04:59.492Z,0.90
2017-07-22T19:07:26.850Z,0.60
2017-07-22T19:09:54.202Z,0.60
2017-07-22T19:12:21.529Z,0.60
2017-07-22T19:14:49.277Z,0.77
2017-07-22T19:17:16.616Z,0.93
2017-07-22T19:19:44.001Z,0.70
2017-07-22T19:22:11.301Z,3.07
2017-07-22T19:24:38.651Z,0.60
2017-07-22T19:27:05.974Z,0.80
2017-07-22T19:29:33.330Z,0.50
2017-07-22T19:32:00.659Z,0.50
2017-07-22T19:34:28.035Z,0.50
2017-07-22T19:36:55.332Z,0.50
2017-07-22T19:39:22.650Z,0.50
2017-07-22T19:41:50.047Z,0.50
2017-07-22T19:44:17.369Z,0.50
2017-07-22T19:46:44.713Z,0.50
2017-07-22T19:49:12.046Z,0.70
2017-07-22T19:51:39.392Z,0.80
2017-07-22T19:54:06.713Z,0.63
2017-07-22T19:56:34.046Z,0.50
2017-07-22T19:59:01.430Z,0.87
2017-07-22T20:01:28.759Z,0.60
2017-07-22T20:03:56.097Z,0.60
2017-07-22T20:06:23.463Z,0.50
2017-07-22T20:08:50.781Z,0.60
2017-07-22T20:11:18.143Z,0.50
2017-07-22T20:13:45.463Z,0.60
2017-07-22T20:16:12.822Z,2.80
2017-07-22T20:18:40.148Z,0.50
2017-07-22T20:21:07.467Z,0.93
2017-07-22T20:23:34.806Z,0.50
2017-07-22T20:26:02.100Z,0.73
2017-07-22T20:28:29.454Z,0.67
2017-07-22T20:30:56.766Z,0.60
2017-07-22T20:33:24.105Z,0.50
2017-07-22T20:35:51.412Z,0.50
2017-07-22T20:38:18.729Z,0.50
2017-07-22T20:40:46.036Z,0.50
2017-07-22T20:43:13.356Z,0.70
2017-07-22T20:45:40.698Z,0.50
2017-07-22T20:48:08.038Z,0.93
2017-07-22T20:50:35.382Z,0.50
2017-07-22T20:53:03.646Z,0.73
2017-07-22T20:55:31.308Z,0.50
2017-07-22T20:57:58.624Z,0.50
2017-07-22T21:00:26.006Z,0.60
2017-07-22T21:02:53.318Z,1.17
2017-07-22T21:05:20.666Z,0.50
2017-07-22T21:07:47.986Z,1.20
2017-07-22T21:10:15.300Z,0.50
2017-07-22T21:12:42.599Z,0.50
2017-07-22T21:15:09.929Z,0.50
2017-07-22T21:17:37.263Z,0.50
2017-07-22T21:20:04.625Z,0.50
2017-07-22T21:22:32.349Z,0.50
2017-07-22T21:24:59.692Z,1.57
2017-07-22T21:27:26.997Z,0.50
2017-07-22T21:29:54.330Z,0.60
2017-07-22T21:32:21.645Z,1.33
2017-07-22T21:34:49.196Z,0.50
2017-07-22T21:37:16.518Z,0.50
2017-07-22T21:39:43.832Z,0.50
2017-07-22T21:42:11.203Z,0.60
2017-07-22T21:44:38.522Z,0.50
2017-07-22T21:47:05.877Z,0.50
2017-07-22T21:49:33.277Z,0.60
2017-07-22T21:52:00.592Z,0.97
2017-07-22T21:54:27.904Z,1.87
2017-07-22T21:56:55.241Z,0.50
2017-07-22T21:59:22.566Z,0.80
2017-07-22T22:01:49.908Z,0.50
2017-07-22T22:04:17.245Z,0.50
2017-07-22T22:06:44.594Z,0.50
2017-07-22T22:09:11.942Z,0.50
2017-07-22T22:11:39.276Z,0.50
2017-07-22T22:14:06.622Z,0.50
2017-07-22T22:16:33.955Z,0.50
2017-07-22T22:19:01.318Z,1.20
2017-07-22T22:21:28.633Z,0.50
2017-07-22T22:23:55.985Z,0.63
2017-07-22T22:26:23.330Z,0.50
2017-07-22T22:28:50.663Z,0.50
2017-07-22T22:31:18.006Z,0.50
2017-07-22T22:33:45.365Z,0.60
2017-07-22T22:36:12.677Z,1.37
2017-07-22T22:38:40.029Z,0.60
2017-07-22T22:41:07.364Z,0.50
2017-07-22T22:43:34.718Z,0.90
2017-07-22T22:46:02.982Z,0.70
2017-07-22T22:48:30.320Z,0.50
2017-07-22T22:50:57.656Z,0.60
2017-07-22T22:53:24.961Z,0.70
2017-07-22T22:55:52.286Z,0.80
2017-07-22T22:58:20.507Z,0.60
2017-07-22T23:00:47.879Z,0.50
2017-07-22T23:03:15.169Z,0.50
2017-07-22T23:05:42.488Z,0.50
2017-07-22T23:08:09.797Z,1.67
2017-07-22T23:10:37.118Z,1.47
2017-07-22T23:13:04.445Z,0.50
2017-07-22T23:15:31.772Z,1.07
2017-07-22T23:17:59.082Z,0.50
2017-07-22T23:20:26.391Z,0.60
2017-07-22T23:22:53.716Z,0.50
2017-07-22T23:25:21.048Z,0.93
2017-07-22T23:27:48.400Z,0.70
2017-07-22T23:30:15.741Z,0.60
2017-07-22T23:32:43.138Z,0.93
2017-07-22T23:35:10.508Z,0.40
2017-07-22T23:37:37.873Z,0.50
2017-07-22T23:40:05.192Z,0.60
2017-07-22T23:42:32.508Z,0.83
2017-07-22T23:44:59.830Z,1.20
2017-07-22T23:47:27.154Z,1.00
2017-07-22T23:49:54.448Z,0.50
2017-07-22T23:52:21.765Z,0.50
2017-07-22T23:54:49.082Z,0.70
2017-07-22T23:57:16.410Z,0.70
2017-07-22T23:59:43.717Z,1.07
